sensor_id;sensor_type;location;lat;lon;timestamp;temperature;humidity
6164;DHT22;3114;48.362;10.994;2023-07-22T00:02:02;17.60;99.90
6164;DHT22;3114;48.362;10.994;2023-07-22T00:04:29;17.40;99.90
6164;DHT22;3114;48.362;10.994;2023-07-22T00:06:57;17.40;99.90
6164;DHT22;3114;48.362;10.994;2023-07-22T00:09:24;17.40;99.90
6164;DHT22;3114;48.362;10.994;2023-07-22T00:11:54;17.40;99.90
6164;DHT22;3114;48.362;10.994;2023-07-22T00:14:21;17.30;99.90
6164;DHT22;3114;48.362;10.994;2023-07-22T00:16:47;17.30;99.90
6164;DHT22;3114;48.362;10.994;2023-07-22T00:19:14;17.20;99.90
6164;DHT22;3114;48.362;10.994;2023-07-22T00:21:41;17.20;99.90
6164;DHT22;3114;48.362;10.994;2023-07-22T00:24:10;17.20;99.90
6164;DHT22;3114;48.362;10.994;2023-07-22T00:26:36;17.30;99.90
6164;DHT22;3114;48.362;10.994;2023-07-22T00:29:03;17.30;99.90
6164;DHT22;3114;48.362;10.994;2023-07-22T00:31:31;17.30;99.90
6164;DHT22;3114;48.362;10.994;2023-07-22T00:33:58;17.40;99.90
6164;DHT22;3114;48.362;10.994;2023-07-22T00:36:25;17.30;99.90
6164;DHT22;3114;48.362;10.994;2023-07-22T00:38:52;17.20;99.90
6164;DHT22;3114;48.362;10.994;2023-07-22T00:41:22;17.20;99.90
6164;DHT22;3114;48.362;10.994;2023-07-22T00:43:49;17.20;99.90
6164;DHT22;3114;48.362;10.994;2023-07-22T00:46:16;17.10;99.90
6164;DHT22;3114;48.362;10.994;2023-07-22T00:48:43;17.10;99.90
6164;DHT22;3114;48.362;10.994;2023-07-22T00:51:10;17.10;99.90
6164;DHT22;3114;48.362;10.994;2023-07-22T00:53:37;17.20;99.90
6164;DHT22;3114;48.362;10.994;2023-07-22T00:56:04;17.10;99.90
6164;DHT22;3114;48.362;10.994;2023-07-22T00:58:33;17.10;99.90
6164;DHT22;3114;48.362;10.994;2023-07-22T01:01:00;17.00;99.90
6164;DHT22;3114;48.362;10.994;2023-07-22T01:03:26;17.10;99.90
6164;DHT22;3114;48.362;10.994;2023-07-22T01:05:55;17.10;99.90
6164;DHT22;3114;48.362;10.994;2023-07-22T01:08:24;17.10;99.90
6164;DHT22;3114;48.362;10.994;2023-07-22T01:10:51;17.00;99.90
6164;DHT22;3114;48.362;10.994;2023-07-22T01:13:18;17.10;99.90
6164;DHT22;3114;48.362;10.994;2023-07-22T01:15:46;17.10;99.90
6164;DHT22;3114;48.362;10.994;2023-07-22T01:18:14;17.00;99.90
6164;DHT22;3114;48.362;10.994;2023-07-22T01:20:41;17.00;99.90
6164;DHT22;3114;48.362;10.994;2023-07-22T01:23:10;17.20;99.90
6164;DHT22;3114;48.362;10.994;2023-07-22T01:25:37;17.10;99.90
6164;DHT22;3114;48.362;10.994;2023-07-22T01:28:09;17.10;99.90
6164;DHT22;3114;48.362;10.994;2023-07-22T01:30:36;17.00;99.90
6164;DHT22;3114;48.362;10.994;2023-07-22T01:33:03;16.90;99.90
6164;DHT22;3114;48.362;10.994;2023-07-22T01:35:30;16.90;99.90
6164;DHT22;3114;48.362;10.994;2023-07-22T01:37:57;16.80;99.90
6164;DHT22;3114;48.362;10.994;2023-07-22T01:40:25;16.80;99.90
6164;DHT22;3114;48.362;10.994;2023-07-22T01:42:54;16.80;99.90
6164;DHT22;3114;48.362;10.994;2023-07-22T01:45:24;16.70;99.90
6164;DHT22;3114;48.362;10.994;2023-07-22T01:47:52;16.70;99.90
6164;DHT22;3114;48.362;10.994;2023-07-22T01:50:18;16.60;99.90
6164;DHT22;3114;48.362;10.994;2023-07-22T01:52:45;16.60;99.90
6164;DHT22;3114;48.362;10.994;2023-07-22T01:55:13;16.70;99.90
6164;DHT22;3114;48.362;10.994;2023-07-22T01:57:41;16.70;99.90
6164;DHT22;3114;48.362;10.994;2023-07-22T02:00:09;16.70;99.90
6164;DHT22;3114;48.362;10.994;2023-07-22T02:02:37;16.80;99.90
6164;DHT22;3114;48.362;10.994;2023-07-22T02:05:05;16.70;99.90
6164;DHT22;3114;48.362;10.994;2023-07-22T02:07:32;16.60;99.90
6164;DHT22;3114;48.362;10.994;2023-07-22T02:10:01;16.60;99.90
6164;DHT22;3114;48.362;10.994;2023-07-22T02:12:28;16.60;99.90
6164;DHT22;3114;48.362;10.994;2023-07-22T02:14:56;16.60;99.90
6164;DHT22;3114;48.362;10.994;2023-07-22T02:17:23;16.60;99.90
6164;DHT22;3114;48.362;10.994;2023-07-22T02:19:50;16.50;99.90
6164;DHT22;3114;48.362;10.994;2023-07-22T02:22:17;16.60;99.90
6164;DHT22;3114;48.362;10.994;2023-07-22T02:24:44;16.60;99.90
6164;DHT22;3114;48.362;10.994;2023-07-22T02:27:11;16.70;99.90
6164;DHT22;3114;48.362;10.994;2023-07-22T02:29:38;16.70;99.90
6164;DHT22;3114;48.362;10.994;2023-07-22T02:32:07;16.70;99.90
6164;DHT22;3114;48.362;10.994;2023-07-22T02:34:34;16.60;99.90
6164;DHT22;3114;48.362;10.994;2023-07-22T02:37:04;16.60;99.90
6164;DHT22;3114;48.362;10.994;2023-07-22T02:39:31;16.60;99.90
6164;DHT22;3114;48.362;10.994;2023-07-22T02:41:58;16.50;99.90
6164;DHT22;3114;48.362;10.994;2023-07-22T02:44:24;16.50;99.90
6164;DHT22;3114;48.362;10.994;2023-07-22T02:46:54;16.40;99.90
6164;DHT22;3114;48.362;10.994;2023-07-22T02:49:22;16.50;99.90
6164;DHT22;3114;48.362;10.994;2023-07-22T02:51:50;16.40;99.90
6164;DHT22;3114;48.362;10.994;2023-07-22T02:54:16;16.40;99.90
6164;DHT22;3114;48.362;10.994;2023-07-22T02:56:43;16.40;99.90
6164;DHT22;3114;48.362;10.994;2023-07-22T02:59:10;16.40;99.90
6164;DHT22;3114;48.362;10.994;2023-07-22T03:01:37;16.30;99.90
6164;DHT22;3114;48.362;10.994;2023-07-22T03:04:05;16.30;99.90
6164;DHT22;3114;48.362;10.994;2023-07-22T03:06:33;16.30;99.90
6164;DHT22;3114;48.362;10.994;2023-07-22T03:09:00;16.20;99.90
6164;DHT22;3114;48.362;10.994;2023-07-22T03:11:30;16.10;99.90
6164;DHT22;3114;48.362;10.994;2023-07-22T03:13:57;16.10;99.90
6164;DHT22;3114;48.362;10.994;2023-07-22T03:16:25;16.10;99.90
6164;DHT22;3114;48.362;10.994;2023-07-22T03:18:52;16.10;99.90
6164;DHT22;3114;48.362;10.994;2023-07-22T03:21:19;16.20;99.90
6164;DHT22;3114;48.362;10.994;2023-07-22T03:23:47;16.30;99.90
6164;DHT22;3114;48.362;10.994;2023-07-22T03:26:14;16.20;99.90
6164;DHT22;3114;48.362;10.994;2023-07-22T03:28:41;16.30;99.90
6164;DHT22;3114;48.362;10.994;2023-07-22T03:31:08;16.30;99.90
6164;DHT22;3114;48.362;10.994;2023-07-22T03:33:35;16.30;99.90
6164;DHT22;3114;48.362;10.994;2023-07-22T03:36:01;16.30;99.90
6164;DHT22;3114;48.362;10.994;2023-07-22T03:38:28;16.30;99.90
6164;DHT22;3114;48.362;10.994;2023-07-22T03:40:57;16.30;99.90
6164;DHT22;3114;48.362;10.994;2023-07-22T03:43:24;16.20;99.90
6164;DHT22;3114;48.362;10.994;2023-07-22T03:45:51;16.30;99.90
6164;DHT22;3114;48.362;10.994;2023-07-22T03:48:18;16.20;99.90
6164;DHT22;3114;48.362;10.994;2023-07-22T03:50:45;16.20;99.90
6164;DHT22;3114;48.362;10.994;2023-07-22T03:53:12;16.20;99.90
6164;DHT22;3114;48.362;10.994;2023-07-22T03:55:39;16.30;99.90
6164;DHT22;3114;48.362;10.994;2023-07-22T03:58:09;16.20;99.90
6164;DHT22;3114;48.362;10.994;2023-07-22T04:00:38;16.20;99.90
6164;DHT22;3114;48.362;10.994;2023-07-22T04:03:05;16.10;99.90
6164;DHT22;3114;48.362;10.994;2023-07-22T04:05:32;16.10;99.90
6164;DHT22;3114;48.362;10.994;2023-07-22T04:07:59;16.20;99.90
6164;DHT22;3114;48.362;10.994;2023-07-22T04:10:26;16.10;99.90
6164;DHT22;3114;48.362;10.994;2023-07-22T04:12:52;16.10;99.90
6164;DHT22;3114;48.362;10.994;2023-07-22T04:15:21;16.10;99.90
6164;DHT22;3114;48.362;10.994;2023-07-22T04:17:48;16.00;99.90
6164;DHT22;3114;48.362;10.994;2023-07-22T04:20:14;15.90;99.90
6164;DHT22;3114;48.362;10.994;2023-07-22T04:22:42;16.00;99.90
6164;DHT22;3114;48.362;10.994;2023-07-22T04:25:09;16.10;99.90
6164;DHT22;3114;48.362;10.994;2023-07-22T04:29:26;16.00;99.90
6164;DHT22;3114;48.362;10.994;2023-07-22T04:31:09;16.10;99.90
6164;DHT22;3114;48.362;10.994;2023-07-22T04:33:36;16.20;99.90
6164;DHT22;3114;48.362;10.994;2023-07-22T04:36:03;16.20;99.90
6164;DHT22;3114;48.362;10.994;2023-07-22T04:38:32;16.20;99.90
6164;DHT22;3114;48.362;10.994;2023-07-22T04:40:59;16.30;99.90
6164;DHT22;3114;48.362;10.994;2023-07-22T04:43:27;16.30;99.90
6164;DHT22;3114;48.362;10.994;2023-07-22T04:45:54;16.30;99.90
6164;DHT22;3114;48.362;10.994;2023-07-22T04:48:22;16.30;99.90
6164;DHT22;3114;48.362;10.994;2023-07-22T04:50:50;16.40;99.90
6164;DHT22;3114;48.362;10.994;2023-07-22T04:53:17;16.40;99.90
6164;DHT22;3114;48.362;10.994;2023-07-22T04:55:44;16.50;99.90
6164;DHT22;3114;48.362;10.994;2023-07-22T04:58:11;16.50;99.90
6164;DHT22;3114;48.362;10.994;2023-07-22T05:00:40;16.40;99.90
6164;DHT22;3114;48.362;10.994;2023-07-22T05:03:08;16.30;99.90
6164;DHT22;3114;48.362;10.994;2023-07-22T05:05:36;16.20;99.90
6164;DHT22;3114;48.362;10.994;2023-07-22T05:08:03;16.00;99.90
6164;DHT22;3114;48.362;10.994;2023-07-22T05:10:30;15.90;99.90
6164;DHT22;3114;48.362;10.994;2023-07-22T05:12:57;15.90;99.90
6164;DHT22;3114;48.362;10.994;2023-07-22T05:15:24;15.90;99.90
6164;DHT22;3114;48.362;10.994;2023-07-22T05:17:51;16.00;99.90
6164;DHT22;3114;48.362;10.994;2023-07-22T05:20:18;16.10;99.90
6164;DHT22;3114;48.362;10.994;2023-07-22T05:22:48;16.20;99.90
6164;DHT22;3114;48.362;10.994;2023-07-22T05:25:15;16.30;99.90
6164;DHT22;3114;48.362;10.994;2023-07-22T05:27:42;16.20;99.90
6164;DHT22;3114;48.362;10.994;2023-07-22T05:30:09;16.20;99.90
6164;DHT22;3114;48.362;10.994;2023-07-22T05:32:45;16.30;99.90
6164;DHT22;3114;48.362;10.994;2023-07-22T05:35:12;16.40;99.90
6164;DHT22;3114;48.362;10.994;2023-07-22T05:37:39;16.50;99.90
6164;DHT22;3114;48.362;10.994;2023-07-22T05:40:08;16.40;99.90
6164;DHT22;3114;48.362;10.994;2023-07-22T05:42:35;16.50;99.90
6164;DHT22;3114;48.362;10.994;2023-07-22T05:45:03;16.50;99.90
6164;DHT22;3114;48.362;10.994;2023-07-22T05:47:30;16.40;99.90
6164;DHT22;3114;48.362;10.994;2023-07-22T05:49:57;16.50;99.90
6164;DHT22;3114;48.362;10.994;2023-07-22T05:52:23;16.50;99.90
6164;DHT22;3114;48.362;10.994;2023-07-22T05:54:50;16.70;99.90
6164;DHT22;3114;48.362;10.994;2023-07-22T05:57:19;16.70;99.90
6164;DHT22;3114;48.362;10.994;2023-07-22T05:59:45;16.80;99.90
6164;DHT22;3114;48.362;10.994;2023-07-22T06:02:13;16.80;99.90
6164;DHT22;3114;48.362;10.994;2023-07-22T06:04:40;16.90;99.90
6164;DHT22;3114;48.362;10.994;2023-07-22T06:07:07;16.90;99.90
6164;DHT22;3114;48.362;10.994;2023-07-22T06:09:34;16.90;99.90
6164;DHT22;3114;48.362;10.994;2023-07-22T06:12:01;16.90;99.90
6164;DHT22;3114;48.362;10.994;2023-07-22T06:14:30;16.80;99.90
6164;DHT22;3114;48.362;10.994;2023-07-22T06:16:57;16.70;99.90
6164;DHT22;3114;48.362;10.994;2023-07-22T06:19:24;16.80;99.90
6164;DHT22;3114;48.362;10.994;2023-07-22T06:21:51;16.90;99.90
6164;DHT22;3114;48.362;10.994;2023-07-22T06:24:18;16.90;99.90
6164;DHT22;3114;48.362;10.994;2023-07-22T06:26:44;17.10;99.90
6164;DHT22;3114;48.362;10.994;2023-07-22T06:29:11;17.20;99.90
6164;DHT22;3114;48.362;10.994;2023-07-22T06:31:40;17.20;99.90
6164;DHT22;3114;48.362;10.994;2023-07-22T06:34:06;17.30;99.90
6164;DHT22;3114;48.362;10.994;2023-07-22T06:36:33;17.30;99.90
6164;DHT22;3114;48.362;10.994;2023-07-22T06:39:00;17.20;99.90
6164;DHT22;3114;48.362;10.994;2023-07-22T06:41:27;17.30;99.90
6164;DHT22;3114;48.362;10.994;2023-07-22T06:43:54;17.30;99.90
6164;DHT22;3114;48.362;10.994;2023-07-22T06:46:21;17.40;99.90
6164;DHT22;3114;48.362;10.994;2023-07-22T06:48:49;17.50;99.90
6164;DHT22;3114;48.362;10.994;2023-07-22T06:51:15;17.50;99.90
6164;DHT22;3114;48.362;10.994;2023-07-22T06:53:42;17.50;99.90
6164;DHT22;3114;48.362;10.994;2023-07-22T06:56:09;17.50;99.90
6164;DHT22;3114;48.362;10.994;2023-07-22T06:58:36;17.60;99.90
6164;DHT22;3114;48.362;10.994;2023-07-22T07:01:03;17.60;99.90
6164;DHT22;3114;48.362;10.994;2023-07-22T07:03:30;17.60;99.90
6164;DHT22;3114;48.362;10.994;2023-07-22T07:05:59;17.70;99.90
6164;DHT22;3114;48.362;10.994;2023-07-22T07:08:26;17.80;99.90
6164;DHT22;3114;48.362;10.994;2023-07-22T07:10:53;17.80;99.90
6164;DHT22;3114;48.362;10.994;2023-07-22T07:13:20;17.70;99.90
6164;DHT22;3114;48.362;10.994;2023-07-22T07:15:48;17.70;99.90
6164;DHT22;3114;48.362;10.994;2023-07-22T07:18:15;17.80;99.90
6164;DHT22;3114;48.362;10.994;2023-07-22T07:20:43;17.90;99.90
6164;DHT22;3114;48.362;10.994;2023-07-22T07:23:13;18.00;99.90
6164;DHT22;3114;48.362;10.994;2023-07-22T07:25:41;18.00;99.90
6164;DHT22;3114;48.362;10.994;2023-07-22T07:28:08;18.20;99.90
6164;DHT22;3114;48.362;10.994;2023-07-22T07:30:36;18.10;99.90
6164;DHT22;3114;48.362;10.994;2023-07-22T07:33:03;18.30;99.90
6164;DHT22;3114;48.362;10.994;2023-07-22T07:35:30;18.30;99.90
6164;DHT22;3114;48.362;10.994;2023-07-22T07:37:57;18.30;99.90
6164;DHT22;3114;48.362;10.994;2023-07-22T07:40:25;18.40;99.90
6164;DHT22;3114;48.362;10.994;2023-07-22T07:42:53;18.50;99.90
6164;DHT22;3114;48.362;10.994;2023-07-22T07:45:21;18.50;99.90
6164;DHT22;3114;48.362;10.994;2023-07-22T07:47:47;18.50;99.90
6164;DHT22;3114;48.362;10.994;2023-07-22T07:50:14;18.50;99.90
6164;DHT22;3114;48.362;10.994;2023-07-22T07:52:41;18.60;99.90
6164;DHT22;3114;48.362;10.994;2023-07-22T07:55:08;18.70;99.90
6164;DHT22;3114;48.362;10.994;2023-07-22T07:57:37;18.90;99.90
6164;DHT22;3114;48.362;10.994;2023-07-22T08:00:05;18.90;99.90
6164;DHT22;3114;48.362;10.994;2023-07-22T08:02:34;18.80;99.90
6164;DHT22;3114;48.362;10.994;2023-07-22T08:05:01;18.90;99.90
6164;DHT22;3114;48.362;10.994;2023-07-22T08:07:28;18.90;99.90
6164;DHT22;3114;48.362;10.994;2023-07-22T08:09:56;18.90;99.90
6164;DHT22;3114;48.362;10.994;2023-07-22T08:12:23;18.90;99.90
6164;DHT22;3114;48.362;10.994;2023-07-22T08:14:52;19.10;99.90
6164;DHT22;3114;48.362;10.994;2023-07-22T08:17:19;19.10;99.90
6164;DHT22;3114;48.362;10.994;2023-07-22T08:19:46;19.20;99.90
6164;DHT22;3114;48.362;10.994;2023-07-22T08:22:12;19.10;99.90
6164;DHT22;3114;48.362;10.994;2023-07-22T08:24:39;19.10;99.90
6164;DHT22;3114;48.362;10.994;2023-07-22T08:27:06;19.10;99.90
6164;DHT22;3114;48.362;10.994;2023-07-22T08:29:34;19.20;99.90
6164;DHT22;3114;48.362;10.994;2023-07-22T08:32:03;19.20;99.90
6164;DHT22;3114;48.362;10.994;2023-07-22T08:34:30;19.20;99.90
6164;DHT22;3114;48.362;10.994;2023-07-22T08:36:57;19.20;99.90
6164;DHT22;3114;48.362;10.994;2023-07-22T08:39:24;19.30;99.90
6164;DHT22;3114;48.362;10.994;2023-07-22T08:41:51;19.40;99.90
6164;DHT22;3114;48.362;10.994;2023-07-22T08:44:19;19.30;99.90
6164;DHT22;3114;48.362;10.994;2023-07-22T08:46:47;19.30;99.90
6164;DHT22;3114;48.362;10.994;2023-07-22T08:49:17;19.30;99.90
6164;DHT22;3114;48.362;10.994;2023-07-22T08:51:45;19.40;99.90
6164;DHT22;3114;48.362;10.994;2023-07-22T08:54:13;19.30;99.90
6164;DHT22;3114;48.362;10.994;2023-07-22T08:56:41;19.30;99.90
6164;DHT22;3114;48.362;10.994;2023-07-22T08:59:08;19.30;99.90
6164;DHT22;3114;48.362;10.994;2023-07-22T09:01:37;19.30;99.90
6164;DHT22;3114;48.362;10.994;2023-07-22T09:04:05;19.40;99.90
6164;DHT22;3114;48.362;10.994;2023-07-22T09:06:34;19.50;99.90
6164;DHT22;3114;48.362;10.994;2023-07-22T09:09:02;19.60;99.90
6164;DHT22;3114;48.362;10.994;2023-07-22T09:11:33;19.70;99.90
6164;DHT22;3114;48.362;10.994;2023-07-22T09:14:02;19.60;99.90
6164;DHT22;3114;48.362;10.994;2023-07-22T09:16:30;19.70;99.90
6164;DHT22;3114;48.362;10.994;2023-07-22T09:18:57;19.80;99.90
6164;DHT22;3114;48.362;10.994;2023-07-22T09:21:24;19.80;99.90
6164;DHT22;3114;48.362;10.994;2023-07-22T09:23:55;19.70;99.90
6164;DHT22;3114;48.362;10.994;2023-07-22T09:26:22;19.80;99.90
6164;DHT22;3114;48.362;10.994;2023-07-22T09:28:53;20.00;99.90
6164;DHT22;3114;48.362;10.994;2023-07-22T09:31:21;20.10;99.90
6164;DHT22;3114;48.362;10.994;2023-07-22T09:33:48;20.20;99.90
6164;DHT22;3114;48.362;10.994;2023-07-22T09:36:16;20.10;99.90
6164;DHT22;3114;48.362;10.994;2023-07-22T09:38:43;20.10;99.90
6164;DHT22;3114;48.362;10.994;2023-07-22T09:41:11;20.00;99.90
6164;DHT22;3114;48.362;10.994;2023-07-22T09:43:39;20.10;99.90
6164;DHT22;3114;48.362;10.994;2023-07-22T09:46:07;20.10;99.90
6164;DHT22;3114;48.362;10.994;2023-07-22T09:48:41;20.20;99.90
6164;DHT22;3114;48.362;10.994;2023-07-22T09:51:12;20.20;99.90
6164;DHT22;3114;48.362;10.994;2023-07-22T09:53:44;20.20;99.90
6164;DHT22;3114;48.362;10.994;2023-07-22T09:56:13;20.20;99.90
6164;DHT22;3114;48.362;10.994;2023-07-22T09:58:40;20.20;99.90
6164;DHT22;3114;48.362;10.994;2023-07-22T10:01:08;20.40;99.90
6164;DHT22;3114;48.362;10.994;2023-07-22T10:03:38;20.50;99.90
6164;DHT22;3114;48.362;10.994;2023-07-22T10:06:06;20.50;99.90
6164;DHT22;3114;48.362;10.994;2023-07-22T10:08:34;20.60;99.90
6164;DHT22;3114;48.362;10.994;2023-07-22T10:11:05;20.60;99.90
6164;DHT22;3114;48.362;10.994;2023-07-22T10:13:37;20.50;99.90
6164;DHT22;3114;48.362;10.994;2023-07-22T10:16:05;20.50;99.90
6164;DHT22;3114;48.362;10.994;2023-07-22T10:18:33;20.60;99.90
6164;DHT22;3114;48.362;10.994;2023-07-22T10:21:00;20.60;99.90
6164;DHT22;3114;48.362;10.994;2023-07-22T10:23:29;20.60;99.90
6164;DHT22;3114;48.362;10.994;2023-07-22T10:25:57;20.70;99.90
6164;DHT22;3114;48.362;10.994;2023-07-22T10:28:26;21.00;99.90
6164;DHT22;3114;48.362;10.994;2023-07-22T10:30:55;21.00;99.90
6164;DHT22;3114;48.362;10.994;2023-07-22T10:33:22;21.10;99.90
6164;DHT22;3114;48.362;10.994;2023-07-22T10:36:07;21.30;99.90
6164;DHT22;3114;48.362;10.994;2023-07-22T10:38:34;21.20;99.90
6164;DHT22;3114;48.362;10.994;2023-07-22T10:41:01;21.10;99.90
6164;DHT22;3114;48.362;10.994;2023-07-22T10:43:30;21.00;99.90
6164;DHT22;3114;48.362;10.994;2023-07-22T10:46:07;21.00;99.90
6164;DHT22;3114;48.362;10.994;2023-07-22T10:48:36;21.10;99.90
6164;DHT22;3114;48.362;10.994;2023-07-22T10:51:06;21.10;99.90
6164;DHT22;3114;48.362;10.994;2023-07-22T10:53:36;21.20;99.90
6164;DHT22;3114;48.362;10.994;2023-07-22T10:56:12;21.00;99.90
6164;DHT22;3114;48.362;10.994;2023-07-22T10:59:00;21.10;99.90
6164;DHT22;3114;48.362;10.994;2023-07-22T11:01:35;21.40;99.90
6164;DHT22;3114;48.362;10.994;2023-07-22T11:04:21;21.30;99.90
6164;DHT22;3114;48.362;10.994;2023-07-22T11:06:57;21.40;99.90
6164;DHT22;3114;48.362;10.994;2023-07-22T11:09:35;21.50;99.90
6164;DHT22;3114;48.362;10.994;2023-07-22T11:12:03;21.60;99.90
6164;DHT22;3114;48.362;10.994;2023-07-22T11:14:31;21.80;99.90
6164;DHT22;3114;48.362;10.994;2023-07-22T11:17:01;21.90;99.90
6164;DHT22;3114;48.362;10.994;2023-07-22T11:19:29;22.20;99.90
6164;DHT22;3114;48.362;10.994;2023-07-22T11:21:57;22.30;99.90
6164;DHT22;3114;48.362;10.994;2023-07-22T11:24:24;22.30;99.90
6164;DHT22;3114;48.362;10.994;2023-07-22T11:26:52;22.00;99.90
6164;DHT22;3114;48.362;10.994;2023-07-22T11:29:20;22.00;99.90
6164;DHT22;3114;48.362;10.994;2023-07-22T11:31:48;21.80;99.90
6164;DHT22;3114;48.362;10.994;2023-07-22T11:34:18;21.80;99.90
6164;DHT22;3114;48.362;10.994;2023-07-22T11:36:45;22.20;99.90
6164;DHT22;3114;48.362;10.994;2023-07-22T11:39:14;22.30;99.90
6164;DHT22;3114;48.362;10.994;2023-07-22T11:41:41;22.40;99.90
6164;DHT22;3114;48.362;10.994;2023-07-22T11:44:10;22.40;99.90
6164;DHT22;3114;48.362;10.994;2023-07-22T11:46:47;22.40;99.90
6164;DHT22;3114;48.362;10.994;2023-07-22T11:49:24;22.20;99.90
6164;DHT22;3114;48.362;10.994;2023-07-22T11:51:51;22.30;99.90
6164;DHT22;3114;48.362;10.994;2023-07-22T11:54:20;22.50;99.90
6164;DHT22;3114;48.362;10.994;2023-07-22T11:56:47;22.80;99.90
6164;DHT22;3114;48.362;10.994;2023-07-22T11:59:14;22.90;99.90
6164;DHT22;3114;48.362;10.994;2023-07-22T12:01:43;23.00;99.90
6164;DHT22;3114;48.362;10.994;2023-07-22T12:04:11;22.70;99.90
6164;DHT22;3114;48.362;10.994;2023-07-22T12:06:40;22.80;99.90
6164;DHT22;3114;48.362;10.994;2023-07-22T12:09:10;22.60;99.90
6164;DHT22;3114;48.362;10.994;2023-07-22T12:11:37;22.70;99.90
6164;DHT22;3114;48.362;10.994;2023-07-22T12:14:08;23.00;99.90
6164;DHT22;3114;48.362;10.994;2023-07-22T12:16:37;23.00;99.90
6164;DHT22;3114;48.362;10.994;2023-07-22T12:19:04;23.10;99.90
6164;DHT22;3114;48.362;10.994;2023-07-22T12:21:31;23.00;99.90
6164;DHT22;3114;48.362;10.994;2023-07-22T12:24:00;22.80;99.90
6164;DHT22;3114;48.362;10.994;2023-07-22T12:26:27;23.00;99.90
6164;DHT22;3114;48.362;10.994;2023-07-22T12:28:54;23.10;99.90
6164;DHT22;3114;48.362;10.994;2023-07-22T12:31:21;23.20;99.90
6164;DHT22;3114;48.362;10.994;2023-07-22T12:33:48;23.40;99.90
6164;DHT22;3114;48.362;10.994;2023-07-22T12:36:15;23.70;99.90
6164;DHT22;3114;48.362;10.994;2023-07-22T12:38:43;23.90;99.90
6164;DHT22;3114;48.362;10.994;2023-07-22T12:41:12;24.00;99.90
6164;DHT22;3114;48.362;10.994;2023-07-22T12:43:39;23.90;99.90
6164;DHT22;3114;48.362;10.994;2023-07-22T12:46:05;23.80;99.90
6164;DHT22;3114;48.362;10.994;2023-07-22T12:48:32;23.70;99.90
6164;DHT22;3114;48.362;10.994;2023-07-22T12:50:59;23.90;99.90
6164;DHT22;3114;48.362;10.994;2023-07-22T12:53:28;23.70;99.90
6164;DHT22;3114;48.362;10.994;2023-07-22T12:55:55;23.80;99.90
6164;DHT22;3114;48.362;10.994;2023-07-22T12:58:23;23.90;99.90
6164;DHT22;3114;48.362;10.994;2023-07-22T13:00:50;24.10;99.90
6164;DHT22;3114;48.362;10.994;2023-07-22T13:03:18;24.10;99.90
6164;DHT22;3114;48.362;10.994;2023-07-22T13:05:45;24.20;99.90
6164;DHT22;3114;48.362;10.994;2023-07-22T13:08:11;24.30;99.90
6164;DHT22;3114;48.362;10.994;2023-07-22T13:10:38;24.20;99.90
6164;DHT22;3114;48.362;10.994;2023-07-22T13:13:09;23.90;99.90
6164;DHT22;3114;48.362;10.994;2023-07-22T13:15:37;23.80;99.90
6164;DHT22;3114;48.362;10.994;2023-07-22T13:18:04;23.80;99.90
6164;DHT22;3114;48.362;10.994;2023-07-22T13:20:31;23.90;99.90
6164;DHT22;3114;48.362;10.994;2023-07-22T13:22:58;23.60;99.90
6164;DHT22;3114;48.362;10.994;2023-07-22T13:25:25;23.70;99.90
6164;DHT22;3114;48.362;10.994;2023-07-22T13:27:52;23.90;99.90
6164;DHT22;3114;48.362;10.994;2023-07-22T13:30:19;23.90;99.90
6164;DHT22;3114;48.362;10.994;2023-07-22T13:32:47;24.10;99.90
6164;DHT22;3114;48.362;10.994;2023-07-22T13:35:14;24.40;99.90
6164;DHT22;3114;48.362;10.994;2023-07-22T13:37:41;24.20;99.90
6164;DHT22;3114;48.362;10.994;2023-07-22T13:40:08;24.30;99.90
6164;DHT22;3114;48.362;10.994;2023-07-22T13:42:37;24.30;99.90
6164;DHT22;3114;48.362;10.994;2023-07-22T13:45:05;24.60;99.90
6164;DHT22;3114;48.362;10.994;2023-07-22T13:47:32;24.80;99.90
6164;DHT22;3114;48.362;10.994;2023-07-22T13:50:01;25.00;99.90
6164;DHT22;3114;48.362;10.994;2023-07-22T13:52:28;25.00;99.90
6164;DHT22;3114;48.362;10.994;2023-07-22T13:54:55;25.00;99.90
6164;DHT22;3114;48.362;10.994;2023-07-22T13:57:22;25.00;99.90
6164;DHT22;3114;48.362;10.994;2023-07-22T13:59:49;25.00;99.90
6164;DHT22;3114;48.362;10.994;2023-07-22T14:02:16;26.30;99.90
6164;DHT22;3114;48.362;10.994;2023-07-22T14:04:43;29.20;99.90
6164;DHT22;3114;48.362;10.994;2023-07-22T14:07:29;31.70;99.90
6164;DHT22;3114;48.362;10.994;2023-07-22T14:10:04;31.90;99.90
6164;DHT22;3114;48.362;10.994;2023-07-22T14:12:53;30.50;99.90
6164;DHT22;3114;48.362;10.994;2023-07-22T14:15:58;27.50;99.90
6164;DHT22;3114;48.362;10.994;2023-07-22T14:18:29;27.90;99.90
6164;DHT22;3114;48.362;10.994;2023-07-22T14:21:22;27.10;99.90
6164;DHT22;3114;48.362;10.994;2023-07-22T14:24:13;27.60;99.90
6164;DHT22;3114;48.362;10.994;2023-07-22T14:26:56;28.30;99.90
6164;DHT22;3114;48.362;10.994;2023-07-22T14:29:31;29.00;99.90
6164;DHT22;3114;48.362;10.994;2023-07-22T14:32:04;28.50;99.90
6164;DHT22;3114;48.362;10.994;2023-07-22T14:34:32;28.20;99.90
6164;DHT22;3114;48.362;10.994;2023-07-22T14:37:10;27.30;99.90
6164;DHT22;3114;48.362;10.994;2023-07-22T14:39:49;27.60;99.90
6164;DHT22;3114;48.362;10.994;2023-07-22T14:42:23;26.70;99.90
6164;DHT22;3114;48.362;10.994;2023-07-22T14:47:40;26.70;99.90
6164;DHT22;3114;48.362;10.994;2023-07-22T14:50:08;26.50;99.90
6164;DHT22;3114;48.362;10.994;2023-07-22T14:53:08;27.10;99.90
6164;DHT22;3114;48.362;10.994;2023-07-22T14:55:53;27.20;99.90
6164;DHT22;3114;48.362;10.994;2023-07-22T14:58:21;27.70;99.90
6164;DHT22;3114;48.362;10.994;2023-07-22T15:01:02;27.30;99.90
6164;DHT22;3114;48.362;10.994;2023-07-22T15:03:38;27.50;99.90
6164;DHT22;3114;48.362;10.994;2023-07-22T15:06:08;27.10;99.90
6164;DHT22;3114;48.362;10.994;2023-07-22T15:08:37;27.50;99.90
6164;DHT22;3114;48.362;10.994;2023-07-22T15:11:07;27.80;99.90
6164;DHT22;3114;48.362;10.994;2023-07-22T15:13:36;27.50;99.90
6164;DHT22;3114;48.362;10.994;2023-07-22T15:16:06;27.50;99.90
6164;DHT22;3114;48.362;10.994;2023-07-22T15:18:33;27.60;99.90
6164;DHT22;3114;48.362;10.994;2023-07-22T15:21:19;27.40;99.90
6164;DHT22;3114;48.362;10.994;2023-07-22T15:24:00;27.80;99.90
6164;DHT22;3114;48.362;10.994;2023-07-22T15:26:30;27.70;99.90
6164;DHT22;3114;48.362;10.994;2023-07-22T15:28:57;27.50;99.90
6164;DHT22;3114;48.362;10.994;2023-07-22T15:31:30;27.80;99.90
6164;DHT22;3114;48.362;10.994;2023-07-22T15:33:57;28.00;99.90
6164;DHT22;3114;48.362;10.994;2023-07-22T15:36:24;28.10;99.90
6164;DHT22;3114;48.362;10.994;2023-07-22T15:38:51;28.10;99.90
6164;DHT22;3114;48.362;10.994;2023-07-22T15:41:26;27.50;99.90
6164;DHT22;3114;48.362;10.994;2023-07-22T15:44:04;27.40;99.90
6164;DHT22;3114;48.362;10.994;2023-07-22T15:46:34;27.60;99.90
6164;DHT22;3114;48.362;10.994;2023-07-22T15:49:01;27.50;99.90
6164;DHT22;3114;48.362;10.994;2023-07-22T15:51:35;27.10;99.90
6164;DHT22;3114;48.362;10.994;2023-07-22T15:54:09;26.70;99.90
6164;DHT22;3114;48.362;10.994;2023-07-22T15:56:39;26.40;99.90
6164;DHT22;3114;48.362;10.994;2023-07-22T15:59:12;25.90;99.90